Time,TemperatureF,DewpointF,PressureIn,WindDirection,WindDirectionDegrees,WindSpeedMPH,WindSpeedGustMPH,Humidity,HourlyPrecipIn,Conditions,Clouds,dailyrainin,SoftwareType,DateUTC
2013-06-21 00:00:00,65.6,62.6,30.10,WNW,288,0.0,13.0,90,0.00,,,0.00,VWS V14.01,2013-06-21 04:00:00,
2013-06-21 00:01:00,65.6,62.3,30.10,WNW,288,0.0,13.0,89,0.00,,,0.00,VWS V14.01,2013-06-21 04:01:00,
2013-06-21 00:02:00,65.6,62.3,30.10,WNW,288,0.0,13.0,89,0.00,,,0.00,VWS V14.01,2013-06-21 04:02:00,
2013-06-21 00:05:00,65.6,62.3,30.10,WNW,288,0.0,13.0,89,0.00,,,0.00,VWS V14.01,2013-06-21 04:05:00,
2013-06-21 00:10:00,65.6,62.6,30.10,WNW,288,0.0,13.0,90,0.00,,,0.00,VWS V14.01,2013-06-21 04:10:00,
2013-06-21 00:15:00,65.6,62.6,30.10,WNW,288,0.0,13.0,90,0.00,,,0.00,VWS V14.01,2013-06-21 04:15:00,
2013-06-21 00:20:00,65.6,62.6,30.10,WNW,288,0.0,13.0,90,0.00,,,0.00,VWS V14.01,2013-06-21 04:20:00,
2013-06-21 00:25:00,65.6,62.9,30.10,WNW,288,0.0,13.0,91,0.00,,,0.00,VWS V14.01,2013-06-21 04:25:00,
2013-06-21 00:30:00,65.8,63.1,30.10,WNW,288,0.0,13.0,91,0.00,,,0.00,VWS V14.01,2013-06-21 04:30:00,
2013-06-21 00:35:00,65.8,63.1,30.10,WNW,288,1.0,13.0,91,0.00,,,0.00,VWS V14.01,2013-06-21 04:35:00,
2013-06-21 00:40:00,65.6,62.9,30.10,WNW,288,0.0,13.0,91,0.00,,,0.00,VWS V14.01,2013-06-21 04:40:00,
2013-06-21 00:45:00,65.6,62.9,30.10,WNW,288,0.0,13.0,91,0.00,,,0.00,VWS V14.01,2013-06-21 04:45:00,
2013-06-21 00:50:00,65.5,62.8,30.10,WNW,288,0.0,13.0,91,0.00,,,0.00,VWS V14.01,2013-06-21 04:50:00,
2013-06-21 00:55:00,65.5,62.8,30.10,WNW,288,0.0,13.0,91,0.00,,,0.00,VWS V14.01,2013-06-21 04:55:00,
2013-06-21 01:00:00,65.5,62.8,30.10,WNW,288,0.0,13.0,91,0.00,,,0.00,VWS V14.01,2013-06-21 05:00:00,
2013-06-21 01:05:00,65.5,62.8,30.10,WNW,288,0.0,13.0,91,0.00,,,0.00,VWS V14.01,2013-06-21 05:05:00,
2013-06-21 01:10:00,65.5,62.8,30.10,WNW,288,0.0,13.0,91,0.00,,,0.00,VWS V14.01,2013-06-21 05:10:00,
2013-06-21 01:15:00,65.6,62.9,30.10,WNW,288,1.0,13.0,91,0.00,,,0.00,VWS V14.01,2013-06-21 05:15:00,
2013-06-21 01:20:00,65.5,62.8,30.10,WNW,288,0.0,13.0,91,0.00,,,0.00,VWS V14.01,2013-06-21 05:20:00,
2013-06-21 01:25:00,65.5,62.8,30.09,WNW,288,0.0,13.0,91,0.00,,,0.00,VWS V14.01,2013-06-21 05:25:00,
2013-06-21 01:30:00,65.5,62.5,30.09,WNW,288,0.0,13.0,90,0.00,,,0.00,VWS V14.01,2013-06-21 05:30:00,
2013-06-21 01:35:00,65.5,62.5,30.09,WNW,288,0.0,13.0,90,0.00,,,0.00,VWS V14.01,2013-06-21 05:35:00,
2013-06-21 01:40:00,65.3,62.3,30.09,WNW,288,0.0,13.0,90,0.00,,,0.00,VWS V14.01,2013-06-21 05:40:00,
2013-06-21 01:45:00,65.3,62.3,30.10,WNW,288,0.0,13.0,90,0.00,,,0.00,VWS V14.01,2013-06-21 05:45:00,
2013-06-21 01:46:00,65.3,62.3,30.09,WNW,288,0.0,13.0,90,0.00,,,0.00,VWS V14.01,2013-06-21 05:46:00,
2013-06-21 01:50:00,65.2,62.2,30.10,WNW,288,0.0,13.0,90,0.00,,,0.00,VWS V14.01,2013-06-21 05:50:00,
2013-06-21 01:51:00,65.3,62.3,30.09,WNW,288,0.0,13.0,90,0.00,,,0.00,VWS V14.01,2013-06-21 05:51:00,
2013-06-21 01:55:00,65.2,62.2,30.10,WNW,288,0.0,13.0,90,0.00,,,0.00,VWS V14.01,2013-06-21 05:55:00,
2013-06-21 01:56:00,65.2,62.2,30.10,WNW,288,0.0,13.0,90,0.00,,,0.00,VWS V14.01,2013-06-21 05:56:00,
2013-06-21 02:00:00,65.0,62.0,30.09,WNW,288,0.0,13.0,90,0.00,,,0.00,VWS V14.01,2013-06-21 06:00:00,
2013-06-21 02:01:00,65.2,62.2,30.10,WNW,288,0.0,13.0,90,0.00,,,0.00,VWS V14.01,2013-06-21 06:01:00,
2013-06-21 02:05:00,64.8,61.8,30.09,WNW,288,0.0,13.0,90,0.00,,,0.00,VWS V14.01,2013-06-21 06:05:00,
2013-06-21 02:06:00,65.0,62.0,30.10,WNW,288,0.0,13.0,90,0.00,,,0.00,VWS V14.01,2013-06-21 06:06:00,
2013-06-21 02:10:00,64.7,61.7,30.09,WNW,288,0.0,13.0,90,0.00,,,0.00,VWS V14.01,2013-06-21 06:10:00,
2013-06-21 02:11:00,64.8,61.8,30.09,WNW,288,0.0,13.0,90,0.00,,,0.00,VWS V14.01,2013-06-21 06:11:00,
2013-06-21 02:15:00,64.5,61.8,30.08,WNW,288,0.0,13.0,91,0.00,,,0.00,VWS V14.01,2013-06-21 06:15:00,
2013-06-21 02:16:00,64.8,61.8,30.09,WNW,288,0.0,13.0,90,0.00,,,0.00,VWS V14.01,2013-06-21 06:16:00,
2013-06-21 02:20:00,64.5,61.8,30.08,WNW,288,0.0,13.0,91,0.00,,,0.00,VWS V14.01,2013-06-21 06:20:00,
2013-06-21 02:21:00,64.7,61.7,30.09,WNW,288,0.0,13.0,90,0.00,,,0.00,VWS V14.01,2013-06-21 06:21:00,
2013-06-21 02:25:00,64.3,61.6,30.08,WNW,288,0.0,13.0,91,0.00,,,0.00,VWS V14.01,2013-06-21 06:25:00,
2013-06-21 02:26:00,64.5,61.8,30.08,WNW,288,0.0,13.0,91,0.00,,,0.00,VWS V14.01,2013-06-21 06:26:00,
2013-06-21 02:30:00,64.2,61.5,30.08,WNW,288,0.0,13.0,91,0.00,,,0.00,VWS V14.01,2013-06-21 06:30:00,
2013-06-21 02:31:00,64.3,61.6,30.08,WNW,288,0.0,13.0,91,0.00,,,0.00,VWS V14.01,2013-06-21 06:31:00,
2013-06-21 02:35:00,64.0,61.6,30.08,WNW,288,0.0,13.0,92,0.00,,,0.00,VWS V14.01,2013-06-21 06:35:00,
2013-06-21 02:36:00,64.2,61.5,30.08,WNW,288,0.0,13.0,91,0.00,,,0.00,VWS V14.01,2013-06-21 06:36:00,
2013-06-21 02:40:00,64.0,61.6,30.08,WNW,288,0.0,13.0,92,0.00,,,0.00,VWS V14.01,2013-06-21 06:40:00,
2013-06-21 02:41:00,64.2,61.8,30.08,WNW,288,0.0,13.0,92,0.00,,,0.00,VWS V14.01,2013-06-21 06:41:00,
2013-06-21 02:45:00,63.9,61.5,30.08,WNW,288,0.0,13.0,92,0.00,,,0.00,VWS V14.01,2013-06-21 06:45:00,
2013-06-21 02:46:00,64.0,61.6,30.08,WNW,288,0.0,13.0,92,0.00,,,0.00,VWS V14.01,2013-06-21 06:46:00,
2013-06-21 02:50:00,63.9,61.5,30.08,WNW,288,0.0,13.0,92,0.00,,,0.00,VWS V14.01,2013-06-21 06:50:00,
2013-06-21 02:51:00,63.9,61.5,30.08,WNW,288,0.0,13.0,92,0.00,,,0.00,VWS V14.01,2013-06-21 06:51:00,
2013-06-21 02:55:00,63.7,61.3,30.08,WNW,288,0.0,13.0,92,0.00,,,0.00,VWS V14.01,2013-06-21 06:55:00,
2013-06-21 02:56:00,63.9,61.5,30.08,WNW,288,0.0,13.0,92,0.00,,,0.00,VWS V14.01,2013-06-21 06:56:00,
2013-06-21 03:00:00,63.5,61.1,30.08,WNW,288,0.0,13.0,92,0.00,,,0.00,VWS V14.01,2013-06-21 07:00:00,
2013-06-21 03:01:00,63.7,61.3,30.08,WNW,288,0.0,13.0,92,0.00,,,0.00,VWS V14.01,2013-06-21 07:01:00,
2013-06-21 03:05:00,63.4,61.0,30.08,WNW,288,0.0,13.0,92,0.00,,,0.00,VWS V14.01,2013-06-21 07:05:00,
2013-06-21 03:06:00,63.5,61.1,30.08,WNW,288,0.0,13.0,92,0.00,,,0.00,VWS V14.01,2013-06-21 07:06:00,
2013-06-21 03:10:00,63.2,60.8,30.08,WNW,288,0.0,13.0,92,0.00,,,0.00,VWS V14.01,2013-06-21 07:10:00,
2013-06-21 03:11:00,63.4,61.0,30.08,WNW,288,0.0,13.0,92,0.00,,,0.00,VWS V14.01,2013-06-21 07:11:00,
2013-06-21 03:15:00,63.2,60.8,30.09,WNW,288,0.0,13.0,92,0.00,,,0.00,VWS V14.01,2013-06-21 07:15:00,
2013-06-21 03:16:00,63.2,60.8,30.08,WNW,288,0.0,13.0,92,0.00,,,0.00,VWS V14.01,2013-06-21 07:16:00,
2013-06-21 03:20:00,63.2,61.2,30.09,WNW,288,0.0,13.0,93,0.00,,,0.00,VWS V14.01,2013-06-21 07:20:00,
2013-06-21 03:21:00,63.2,60.8,30.09,WNW,288,0.0,13.0,92,0.00,,,0.00,VWS V14.01,2013-06-21 07:21:00,
2013-06-21 03:25:00,63.2,61.2,30.09,WNW,288,0.0,13.0,93,0.00,,,0.00,VWS V14.01,2013-06-21 07:25:00,
2013-06-21 03:26:00,63.2,61.2,30.09,WNW,288,0.0,13.0,93,0.00,,,0.00,VWS V14.01,2013-06-21 07:26:00,
2013-06-21 03:30:00,63.2,61.2,30.09,WNW,288,0.0,13.0,93,0.00,,,0.00,VWS V14.01,2013-06-21 07:30:00,
2013-06-21 03:32:00,63.2,61.2,30.09,WNW,288,0.0,13.0,93,0.00,,,0.00,VWS V14.01,2013-06-21 07:32:00,
2013-06-21 03:35:00,63.2,61.2,30.09,WNW,288,0.0,13.0,93,0.00,,,0.00,VWS V14.01,2013-06-21 07:35:00,
2013-06-21 03:37:00,63.2,61.2,30.09,WNW,288,0.0,13.0,93,0.00,,,0.00,VWS V14.01,2013-06-21 07:37:00,
2013-06-21 03:40:00,63.1,61.0,30.09,WNW,288,0.0,13.0,93,0.00,,,0.00,VWS V14.01,2013-06-21 07:40:00,
2013-06-21 03:42:00,63.2,61.2,30.09,WNW,288,0.0,13.0,93,0.00,,,0.00,VWS V14.01,2013-06-21 07:42:00,
2013-06-21 03:45:00,63.1,61.0,30.09,WNW,288,0.0,13.0,93,0.00,,,0.00,VWS V14.01,2013-06-21 07:45:00,
2013-06-21 03:47:00,63.1,61.0,30.09,WNW,288,0.0,13.0,93,0.00,,,0.00,VWS V14.01,2013-06-21 07:47:00,
2013-06-21 03:50:00,63.1,61.0,30.09,WNW,288,0.0,13.0,93,0.00,,,0.00,VWS V14.01,2013-06-21 07:50:00,
2013-06-21 03:52:00,63.1,61.0,30.09,WNW,288,0.0,13.0,93,0.00,,,0.00,VWS V14.01,2013-06-21 07:52:00,
2013-06-21 03:55:00,63.1,61.0,30.09,WNW,288,0.0,13.0,93,0.00,,,0.00,VWS V14.01,2013-06-21 07:55:00,
2013-06-21 03:57:00,63.1,61.0,30.09,WNW,288,0.0,13.0,93,0.00,,,0.00,VWS V14.01,2013-06-21 07:57:00,
2013-06-21 04:00:00,63.1,61.0,30.09,WNW,288,0.0,13.0,93,0.00,,,0.00,VWS V14.01,2013-06-21 08:00:00,
2013-06-21 04:02:00,63.1,61.0,30.09,WNW,288,0.0,13.0,93,0.00,,,0.00,VWS V14.01,2013-06-21 08:02:00,
2013-06-21 04:05:00,63.1,61.0,30.09,WNW,288,0.0,13.0,93,0.00,,,0.00,VWS V14.01,2013-06-21 08:05:00,
2013-06-21 04:07:00,63.1,61.0,30.09,WNW,288,0.0,13.0,93,0.00,,,0.00,VWS V14.01,2013-06-21 08:07:00,
2013-06-21 04:10:00,63.1,61.0,30.09,WNW,288,0.0,13.0,93,0.00,,,0.00,VWS V14.01,2013-06-21 08:10:00,
2013-06-21 04:12:00,63.1,61.0,30.09,WNW,288,0.0,13.0,93,0.00,,,0.00,VWS V14.01,2013-06-21 08:12:00,
2013-06-21 04:15:00,62.9,60.8,30.09,WNW,288,0.0,13.0,93,0.00,,,0.00,VWS V14.01,2013-06-21 08:15:00,
2013-06-21 04:17:00,63.1,61.0,30.09,WNW,288,0.0,13.0,93,0.00,,,0.00,VWS V14.01,2013-06-21 08:17:00,
2013-06-21 04:20:00,62.9,60.8,30.09,WNW,288,0.0,13.0,93,0.00,,,0.00,VWS V14.01,2013-06-21 08:20:00,
2013-06-21 04:22:00,62.9,60.8,30.09,WNW,288,0.0,13.0,93,0.00,,,0.00,VWS V14.01,2013-06-21 08:22:00,
2013-06-21 04:25:00,62.7,60.7,30.09,WNW,288,0.0,13.0,93,0.00,,,0.00,VWS V14.01,2013-06-21 08:25:00,
2013-06-21 04:27:00,62.9,60.8,30.09,WNW,288,0.0,13.0,93,0.00,,,0.00,VWS V14.01,2013-06-21 08:27:00,
2013-06-21 04:30:00,62.7,61.0,30.09,WNW,288,0.0,13.0,94,0.00,,,0.00,VWS V14.01,2013-06-21 08:30:00,
2013-06-21 04:32:00,62.7,60.7,30.09,WNW,288,0.0,13.0,93,0.00,,,0.00,VWS V14.01,2013-06-21 08:32:00,
2013-06-21 04:35:00,62.6,60.8,30.09,WNW,288,0.0,13.0,94,0.00,,,0.00,VWS V14.01,2013-06-21 08:35:00,
2013-06-21 04:37:00,62.7,61.0,30.09,WNW,288,0.0,13.0,94,0.00,,,0.00,VWS V14.01,2013-06-21 08:37:00,
2013-06-21 04:40:00,62.6,60.8,30.09,WNW,288,0.0,13.0,94,0.00,,,0.00,VWS V14.01,2013-06-21 08:40:00,
2013-06-21 04:42:00,62.6,60.8,30.09,WNW,288,0.0,13.0,94,0.00,,,0.00,VWS V14.01,2013-06-21 08:42:00,
2013-06-21 04:45:00,62.7,61.0,30.09,WNW,288,0.0,13.0,94,0.00,,,0.00,VWS V14.01,2013-06-21 08:45:00,
2013-06-21 04:47:00,62.6,60.8,30.09,WNW,288,0.0,13.0,94,0.00,,,0.00,VWS V14.01,2013-06-21 08:47:00,
2013-06-21 04:50:00,62.6,60.8,30.09,WNW,288,0.0,13.0,94,0.00,,,0.00,VWS V14.01,2013-06-21 08:50:00,
2013-06-21 04:52:00,62.6,60.8,30.09,WNW,288,0.0,13.0,94,0.00,,,0.00,VWS V14.01,2013-06-21 08:52:00,
2013-06-21 04:55:00,62.6,60.8,30.09,WNW,288,0.0,13.0,94,0.00,,,0.00,VWS V14.01,2013-06-21 08:55:00,
2013-06-21 04:57:00,62.6,60.8,30.09,WNW,288,0.0,13.0,94,0.00,,,0.00,VWS V14.01,2013-06-21 08:57:00,
2013-06-21 05:00:00,62.6,60.8,30.10,WNW,288,0.0,13.0,94,0.00,,,0.00,VWS V14.01,2013-06-21 09:00:00,
2013-06-21 05:02:00,62.6,60.8,30.09,WNW,288,0.0,13.0,94,0.00,,,0.00,VWS V14.01,2013-06-21 09:02:00,
2013-06-21 05:05:00,62.4,60.7,30.10,WNW,288,0.0,13.0,94,0.00,,,0.00,VWS V14.01,2013-06-21 09:05:00,
2013-06-21 05:07:00,62.6,60.8,30.10,WNW,288,0.0,13.0,94,0.00,,,0.00,VWS V14.01,2013-06-21 09:07:00,
2013-06-21 05:10:00,62.4,60.7,30.10,WNW,288,0.0,13.0,94,0.00,,,0.00,VWS V14.01,2013-06-21 09:10:00,
2013-06-21 05:12:00,62.4,60.7,30.10,WNW,288,0.0,13.0,94,0.00,,,0.00,VWS V14.01,2013-06-21 09:12:00,
2013-06-21 05:15:00,62.4,60.7,30.11,WNW,288,0.0,13.0,94,0.00,,,0.00,VWS V14.01,2013-06-21 09:15:00,
2013-06-21 05:17:00,62.4,60.7,30.10,WNW,288,0.0,13.0,94,0.00,,,0.00,VWS V14.01,2013-06-21 09:17:00,
2013-06-21 05:20:00,62.3,60.6,30.11,WNW,288,0.0,13.0,94,0.00,,,0.00,VWS V14.01,2013-06-21 09:20:00,
2013-06-21 05:23:00,62.3,60.6,30.11,WNW,288,0.0,13.0,94,0.00,,,0.00,VWS V14.01,2013-06-21 09:23:00,
2013-06-21 05:25:00,62.3,60.6,30.11,WNW,288,0.0,13.0,94,0.00,,,0.00,VWS V14.01,2013-06-21 09:25:00,
2013-06-21 05:28:00,62.3,60.6,30.11,WNW,288,0.0,13.0,94,0.00,,,0.00,VWS V14.01,2013-06-21 09:28:00,
2013-06-21 05:30:00,62.3,60.6,30.11,WNW,288,0.0,13.0,94,0.00,,,0.00,VWS V14.01,2013-06-21 09:30:00,
2013-06-21 05:33:00,62.3,60.6,30.11,WNW,288,0.0,13.0,94,0.00,,,0.00,VWS V14.01,2013-06-21 09:33:00,
2013-06-21 05:35:00,62.1,60.4,30.11,WNW,288,0.0,13.0,94,0.00,,,0.00,VWS V14.01,2013-06-21 09:35:00,
2013-06-21 05:38:00,62.3,60.6,30.11,WNW,288,0.0,13.0,94,0.00,,,0.00,VWS V14.01,2013-06-21 09:38:00,
2013-06-21 05:40:00,62.1,60.4,30.11,WNW,288,0.0,13.0,94,0.00,,,0.00,VWS V14.01,2013-06-21 09:40:00,
2013-06-21 05:43:00,62.1,60.4,30.11,WNW,288,0.0,13.0,94,0.00,,,0.00,VWS V14.01,2013-06-21 09:43:00,
2013-06-21 05:45:00,62.1,60.4,30.11,WNW,288,0.0,13.0,94,0.00,,,0.00,VWS V14.01,2013-06-21 09:45:00,
2013-06-21 05:48:00,62.1,60.4,30.11,WNW,288,0.0,13.0,94,0.00,,,0.00,VWS V14.01,2013-06-21 09:48:00,
2013-06-21 05:50:00,62.0,60.3,30.11,WNW,288,0.0,13.0,94,0.00,,,0.00,VWS V14.01,2013-06-21 09:50:00,
2013-06-21 05:53:00,62.1,60.4,30.11,WNW,288,0.0,13.0,94,0.00,,,0.00,VWS V14.01,2013-06-21 09:53:00,
2013-06-21 05:55:00,62.0,60.3,30.11,WNW,288,0.0,13.0,94,0.00,,,0.00,VWS V14.01,2013-06-21 09:55:00,
2013-06-21 05:58:00,62.0,60.3,30.11,WNW,288,0.0,13.0,94,0.00,,,0.00,VWS V14.01,2013-06-21 09:58:00,
2013-06-21 06:00:00,62.0,60.3,30.12,WNW,288,0.0,13.0,94,0.00,,,0.00,VWS V14.01,2013-06-21 10:00:00,
2013-06-21 06:03:00,62.0,60.3,30.11,WNW,288,0.0,13.0,94,0.00,,,0.00,VWS V14.01,2013-06-21 10:03:00,
2013-06-21 06:05:00,62.1,60.4,30.12,WNW,288,0.0,13.0,94,0.00,,,0.00,VWS V14.01,2013-06-21 10:05:00,
2013-06-21 06:08:00,62.0,60.3,30.12,WNW,288,0.0,13.0,94,0.00,,,0.00,VWS V14.01,2013-06-21 10:08:00,
2013-06-21 06:10:00,62.0,60.3,30.12,WNW,288,0.0,13.0,94,0.00,,,0.00,VWS V14.01,2013-06-21 10:10:00,
2013-06-21 06:13:00,62.1,60.4,30.12,WNW,288,0.0,13.0,94,0.00,,,0.00,VWS V14.01,2013-06-21 10:13:00,
2013-06-21 06:15:00,62.1,60.7,30.13,WNW,288,0.0,13.0,95,0.00,,,0.00,VWS V14.01,2013-06-21 10:15:00,
2013-06-21 06:18:00,62.0,60.3,30.12,WNW,288,0.0,13.0,94,0.00,,,0.00,VWS V14.01,2013-06-21 10:18:00,
2013-06-21 06:20:00,62.1,60.7,30.13,WNW,288,0.0,13.0,95,0.00,,,0.00,VWS V14.01,2013-06-21 10:20:00,
2013-06-21 06:23:00,62.1,60.7,30.13,WNW,288,0.0,13.0,95,0.00,,,0.00,VWS V14.01,2013-06-21 10:23:00,
2013-06-21 06:25:00,62.3,60.8,30.13,WNW,288,0.0,13.0,95,0.00,,,0.00,VWS V14.01,2013-06-21 10:25:00,
2013-06-21 06:28:00,62.1,60.7,30.13,WNW,288,0.0,13.0,95,0.00,,,0.00,VWS V14.01,2013-06-21 10:28:00,
2013-06-21 06:30:00,62.3,60.8,30.13,WNW,288,0.0,13.0,95,0.00,,,0.00,VWS V14.01,2013-06-21 10:30:00,
2013-06-21 06:33:00,62.3,60.8,30.13,WNW,288,0.0,13.0,95,0.00,,,0.00,VWS V14.01,2013-06-21 10:33:00,
2013-06-21 06:35:00,62.4,61.0,30.13,WNW,288,0.0,13.0,95,0.00,,,0.00,VWS V14.01,2013-06-21 10:35:00,
2013-06-21 06:38:00,62.4,61.0,30.13,WNW,288,0.0,13.0,95,0.00,,,0.00,VWS V14.01,2013-06-21 10:38:00,
2013-06-21 06:40:00,62.4,61.0,30.13,WNW,288,0.0,13.0,95,0.00,,,0.00,VWS V14.01,2013-06-21 10:40:00,
2013-06-21 06:43:00,62.4,61.0,30.13,WNW,288,0.0,13.0,95,0.00,,,0.00,VWS V14.01,2013-06-21 10:43:00,
2013-06-21 06:45:00,62.6,61.2,30.13,WNW,288,0.0,13.0,95,0.00,,,0.00,VWS V14.01,2013-06-21 10:45:00,
2013-06-21 06:48:00,62.4,61.0,30.13,WNW,288,0.0,13.0,95,0.00,,,0.00,VWS V14.01,2013-06-21 10:48:00,
2013-06-21 06:50:00,62.6,61.2,30.13,WNW,288,0.0,13.0,95,0.00,,,0.00,VWS V14.01,2013-06-21 10:50:00,
2013-06-21 06:53:00,62.6,61.2,30.13,WNW,288,0.0,13.0,95,0.00,,,0.00,VWS V14.01,2013-06-21 10:53:00,
2013-06-21 06:55:00,62.6,61.2,30.13,WNW,288,0.0,13.0,95,0.00,,,0.00,VWS V14.01,2013-06-21 10:55:00,
2013-06-21 06:58:00,62.6,61.2,30.13,WNW,288,0.0,13.0,95,0.00,,,0.00,VWS V14.01,2013-06-21 10:58:00,
2013-06-21 07:00:00,62.7,61.2,30.14,WNW,288,0.0,13.0,95,0.00,,,0.00,VWS V14.01,2013-06-21 11:00:00,
2013-06-21 07:03:00,62.6,61.2,30.13,WNW,288,0.0,13.0,95,0.00,,,0.00,VWS V14.01,2013-06-21 11:03:00,
2013-06-21 07:05:00,62.9,61.5,30.14,WNW,288,0.0,13.0,95,0.00,,,0.00,VWS V14.01,2013-06-21 11:05:00,
2013-06-21 07:09:00,62.7,61.2,30.14,WNW,288,0.0,13.0,95,0.00,,,0.00,VWS V14.01,2013-06-21 11:09:00,
2013-06-21 07:10:00,62.9,61.5,30.14,WNW,288,0.0,13.0,95,0.00,,,0.00,VWS V14.01,2013-06-21 11:10:00,
2013-06-21 07:14:00,62.9,61.5,30.14,WNW,288,0.0,13.0,95,0.00,,,0.00,VWS V14.01,2013-06-21 11:14:00,
2013-06-21 07:15:00,63.1,61.7,30.14,WNW,288,0.0,13.0,95,0.00,,,0.00,VWS V14.01,2013-06-21 11:15:00,
2013-06-21 07:19:00,63.1,61.7,30.14,WNW,288,0.0,13.0,95,0.00,,,0.00,VWS V14.01,2013-06-21 11:19:00,
2013-06-21 07:20:00,63.2,61.8,30.14,WNW,288,0.0,13.0,95,0.00,,,0.00,VWS V14.01,2013-06-21 11:20:00,
2013-06-21 07:24:00,63.1,61.7,30.14,WNW,288,0.0,13.0,95,0.00,,,0.00,VWS V14.01,2013-06-21 11:24:00,
2013-06-21 07:25:00,63.4,62.0,30.14,WNW,288,0.0,13.0,95,0.00,,,0.00,VWS V14.01,2013-06-21 11:25:00,
2013-06-21 07:29:00,63.2,61.8,30.14,WNW,288,0.0,13.0,95,0.00,,,0.00,VWS V14.01,2013-06-21 11:29:00,
2013-06-21 07:30:00,63.7,61.9,30.14,North,360,0.0,13.0,94,0.00,,,0.00,VWS V14.01,2013-06-21 11:30:00,
2013-06-21 07:34:00,63.5,61.8,30.14,WNW,288,0.0,13.0,94,0.00,,,0.00,VWS V14.01,2013-06-21 11:34:00,
2013-06-21 07:35:00,63.9,61.8,30.14,North,360,0.0,13.0,93,0.00,,,0.00,VWS V14.01,2013-06-21 11:35:00,
2013-06-21 07:39:00,63.7,62.0,30.14,North,360,0.0,13.0,94,0.00,,,0.00,VWS V14.01,2013-06-21 11:39:00,
2013-06-21 07:40:00,64.0,61.9,30.14,North,360,0.0,13.0,93,0.00,,,0.00,VWS V14.01,2013-06-21 11:40:00,
2013-06-21 07:44:00,64.0,61.9,30.14,North,360,0.0,13.0,93,0.00,,,0.00,VWS V14.01,2013-06-21 11:44:00,
2013-06-21 07:45:00,64.2,62.1,30.14,North,360,0.0,13.0,93,0.00,,,0.00,VWS V14.01,2013-06-21 11:45:00,
2013-06-21 07:49:00,64.2,62.1,30.14,North,360,0.0,13.0,93,0.00,,,0.00,VWS V14.01,2013-06-21 11:49:00,
2013-06-21 07:50:00,64.3,61.9,30.14,North,360,0.0,13.0,92,0.00,,,0.00,VWS V14.01,2013-06-21 11:50:00,
2013-06-21 07:54:00,64.3,61.9,30.14,North,360,0.0,13.0,92,0.00,,,0.00,VWS V14.01,2013-06-21 11:54:00,
2013-06-21 07:55:00,64.7,62.3,30.14,North,360,0.0,13.0,92,0.00,,,0.00,VWS V14.01,2013-06-21 11:55:00,
2013-06-21 07:59:00,64.5,62.1,30.14,North,360,0.0,13.0,92,0.00,,,0.00,VWS V14.01,2013-06-21 11:59:00,
2013-06-21 08:00:00,64.8,62.4,30.15,North,360,0.0,13.0,92,0.00,,,0.00,VWS V14.01,2013-06-21 12:00:00,
2013-06-21 08:04:00,64.7,62.3,30.14,North,360,0.0,13.0,92,0.00,,,0.00,VWS V14.01,2013-06-21 12:04:00,
2013-06-21 08:05:00,65.0,62.3,30.15,North,360,0.0,13.0,91,0.00,,,0.00,VWS V14.01,2013-06-21 12:05:00,
2013-06-21 08:09:00,64.8,62.1,30.15,North,360,0.0,13.0,91,0.00,,,0.00,VWS V14.01,2013-06-21 12:09:00,
2013-06-21 08:10:00,65.3,62.3,30.15,North,360,0.0,13.0,90,0.00,,,0.00,VWS V14.01,2013-06-21 12:10:00,
2013-06-21 08:14:00,65.2,62.2,30.15,North,360,0.0,13.0,90,0.00,,,0.00,VWS V14.01,2013-06-21 12:14:00,
2013-06-21 08:15:00,65.5,62.5,30.15,North,360,0.0,13.0,90,0.00,,,0.00,VWS V14.01,2013-06-21 12:15:00,
2013-06-21 08:19:00,65.3,62.3,30.15,North,360,0.0,13.0,90,0.00,,,0.00,VWS V14.01,2013-06-21 12:19:00,
2013-06-21 08:20:00,65.6,62.6,30.15,North,360,0.0,13.0,90,0.00,,,0.00,VWS V14.01,2013-06-21 12:20:00,
2013-06-21 08:24:00,65.6,62.6,30.15,North,360,0.0,13.0,90,0.00,,,0.00,VWS V14.01,2013-06-21 12:24:00,
2013-06-21 08:25:00,65.8,62.2,30.15,North,360,0.0,13.0,88,0.00,,,0.00,VWS V14.01,2013-06-21 12:25:00,
2013-06-21 08:29:00,65.6,62.3,30.15,North,360,0.0,13.0,89,0.00,,,0.00,VWS V14.01,2013-06-21 12:29:00,
2013-06-21 08:30:00,66.0,62.0,30.15,North,360,0.0,13.0,87,0.00,,,0.00,VWS V14.01,2013-06-21 12:30:00,
2013-06-21 08:34:00,65.8,61.8,30.15,North,360,0.0,13.0,87,0.00,,,0.00,VWS V14.01,2013-06-21 12:34:00,
2013-06-21 08:35:00,66.1,61.8,30.15,WSW,237,0.0,13.0,86,0.00,,,0.00,VWS V14.01,2013-06-21 12:35:00,
2013-06-21 08:40:00,66.0,62.0,30.15,North,360,0.0,13.0,87,0.00,,,0.00,VWS V14.01,2013-06-21 12:40:00,
2013-06-21 08:45:00,66.3,61.7,30.15,WSW,237,0.0,13.0,85,0.00,,,0.00,VWS V14.01,2013-06-21 12:45:00,
2013-06-21 08:50:00,66.6,62.3,30.15,WSW,238,0.0,13.0,86,0.00,,,0.00,VWS V14.01,2013-06-21 12:50:00,
2013-06-21 08:55:00,66.9,62.2,30.16,North,5,0.0,13.0,85,0.00,,,0.00,VWS V14.01,2013-06-21 12:55:00,
2013-06-21 09:00:00,67.1,62.1,30.16,West,279,1.0,13.0,84,0.00,,,0.00,VWS V14.01,2013-06-21 13:00:00,
2013-06-21 09:05:00,67.4,62.4,30.16,West,278,0.0,13.0,84,0.00,,,0.00,VWS V14.01,2013-06-21 13:05:00,
2013-06-21 09:10:00,67.6,62.6,30.16,West,278,0.0,13.0,84,0.00,,,0.00,VWS V14.01,2013-06-21 13:10:00,
2013-06-21 09:15:00,67.8,62.5,30.16,West,268,1.0,13.0,83,0.00,,,0.00,VWS V14.01,2013-06-21 13:15:00,
2013-06-21 09:20:00,67.9,62.5,30.16,WSW,244,0.0,13.0,83,0.00,,,0.00,VWS V14.01,2013-06-21 13:20:00,
2013-06-21 09:25:00,68.3,62.6,30.16,WSW,244,0.0,13.0,82,0.00,,,0.00,VWS V14.01,2013-06-21 13:25:00,
2013-06-21 09:30:00,68.9,62.5,30.16,WNW,287,0.0,13.0,80,0.00,,,0.00,VWS V14.01,2013-06-21 13:30:00,
2013-06-21 09:31:00,68.6,62.9,30.16,WSW,244,1.0,13.0,82,0.00,,,0.00,VWS V14.01,2013-06-21 13:31:00,
2013-06-21 09:35:00,69.3,62.9,30.16,West,265,0.0,13.0,80,0.00,,,0.00,VWS V14.01,2013-06-21 13:35:00,
2013-06-21 09:36:00,68.9,62.5,30.16,WSW,255,2.0,13.0,80,0.00,,,0.00,VWS V14.01,2013-06-21 13:36:00,
2013-06-21 09:40:00,69.6,63.2,30.16,West,277,3.0,13.0,80,0.00,,,0.00,VWS V14.01,2013-06-21 13:40:00,
2013-06-21 09:41:00,69.1,62.7,30.16,WNW,287,0.0,13.0,80,0.00,,,0.00,VWS V14.01,2013-06-21 13:41:00,
2013-06-21 09:45:00,69.8,63.4,30.16,WSW,254,0.0,13.0,80,0.00,,,0.00,VWS V14.01,2013-06-21 13:45:00,
2013-06-21 09:46:00,69.6,63.5,30.16,West,272,1.0,13.0,81,0.00,,,0.00,VWS V14.01,2013-06-21 13:46:00,
2013-06-21 09:50:00,69.9,63.5,30.16,WSW,254,0.0,13.0,80,0.00,,,0.00,VWS V14.01,2013-06-21 13:50:00,
2013-06-21 09:51:00,69.8,63.0,30.16,WSW,254,0.0,13.0,79,0.00,,,0.00,VWS V14.01,2013-06-21 13:51:00,
2013-06-21 09:55:00,70.3,63.8,30.16,WNW,286,1.0,13.0,80,0.00,,,0.00,VWS V14.01,2013-06-21 13:55:00,
2013-06-21 09:56:00,69.9,63.5,30.16,WSW,254,0.0,13.0,80,0.00,,,0.00,VWS V14.01,2013-06-21 13:56:00,
2013-06-21 10:00:00,70.6,63.8,30.15,West,275,0.0,13.0,79,0.00,,,0.00,VWS V14.01,2013-06-21 14:00:00,
2013-06-21 10:01:00,70.3,63.8,30.16,WNW,285,3.0,13.0,80,0.00,,,0.00,VWS V14.01,2013-06-21 14:01:00,
2013-06-21 10:05:00,70.9,64.1,30.15,WNW,301,0.0,13.0,79,0.00,,,0.00,VWS V14.01,2013-06-21 14:05:00,
2013-06-21 10:06:00,70.6,64.1,30.15,West,275,1.0,13.0,80,0.00,,,0.00,VWS V14.01,2013-06-21 14:06:00,
2013-06-21 10:10:00,71.3,63.7,30.15,West,267,0.0,13.0,77,0.00,,,0.00,VWS V14.01,2013-06-21 14:10:00,
2013-06-21 10:12:00,70.9,64.1,30.15,WNW,301,0.0,13.0,79,0.00,,,0.00,VWS V14.01,2013-06-21 14:12:00,
2013-06-21 10:15:00,71.5,63.9,30.16,West,269,4.0,13.0,77,0.00,,,0.00,VWS V14.01,2013-06-21 14:15:00,
2013-06-21 10:17:00,71.3,63.7,30.15,West,267,1.0,13.0,77,0.00,,,0.00,VWS V14.01,2013-06-21 14:17:00,
2013-06-21 10:20:00,71.6,63.6,30.16,West,271,0.0,13.0,76,0.00,,,0.00,VWS V14.01,2013-06-21 14:20:00,
2013-06-21 10:22:00,71.5,63.9,30.16,WSW,252,6.0,13.0,77,0.00,,,0.00,VWS V14.01,2013-06-21 14:22:00,
2013-06-21 10:25:00,72.1,64.5,30.16,NNW,344,0.0,13.0,77,0.00,,,0.00,VWS V14.01,2013-06-21 14:25:00,
2013-06-21 10:27:00,71.6,63.6,30.16,West,271,0.0,13.0,76,0.00,,,0.00,VWS V14.01,2013-06-21 14:27:00,
2013-06-21 10:30:00,72.5,64.1,30.15,WSW,254,3.0,13.0,75,0.00,,,0.00,VWS V14.01,2013-06-21 14:30:00,
2013-06-21 10:32:00,72.1,64.5,30.16,NNW,344,0.0,13.0,77,0.00,,,0.00,VWS V14.01,2013-06-21 14:32:00,
2013-06-21 10:35:00,72.7,63.5,30.15,West,271,0.0,13.0,73,0.00,,,0.00,VWS V14.01,2013-06-21 14:35:00,
2013-06-21 10:37:00,72.5,64.1,30.15,WSW,254,3.0,13.0,75,0.00,,,0.00,VWS V14.01,2013-06-21 14:37:00,
2013-06-21 10:40:00,73.0,63.8,30.15,West,273,0.0,13.0,73,0.00,,,0.00,VWS V14.01,2013-06-21 14:40:00,
2013-06-21 10:43:00,72.8,63.7,30.15,West,270,1.0,13.0,73,0.00,,,0.00,VWS V14.01,2013-06-21 14:43:00,
2013-06-21 10:45:00,73.2,64.4,30.15,West,273,2.0,13.0,74,0.00,,,0.00,VWS V14.01,2013-06-21 14:45:00,
2013-06-21 10:48:00,73.0,63.8,30.15,West,273,0.0,13.0,73,0.00,,,0.00,VWS V14.01,2013-06-21 14:48:00,
2013-06-21 10:50:00,73.3,62.5,30.15,West,265,2.0,13.0,69,0.00,,,0.00,VWS V14.01,2013-06-21 14:50:00,
2013-06-21 10:53:00,73.2,64.4,30.15,West,273,0.0,13.0,74,0.00,,,0.00,VWS V14.01,2013-06-21 14:53:00,
2013-06-21 10:55:00,73.5,62.7,30.15,WSW,257,1.0,13.0,69,0.00,,,0.00,VWS V14.01,2013-06-21 14:55:00,
2013-06-21 10:58:00,73.3,62.5,30.15,West,267,0.0,13.0,69,0.00,,,0.00,VWS V14.01,2013-06-21 14:58:00,
2013-06-21 11:00:00,73.9,63.5,30.15,West,259,0.0,13.0,70,0.00,,,0.00,VWS V14.01,2013-06-21 15:00:00,
2013-06-21 11:03:00,73.5,63.1,30.15,West,259,3.0,13.0,70,0.00,,,0.00,VWS V14.01,2013-06-21 15:03:00,
2013-06-21 11:05:00,74.0,63.2,30.15,West,273,2.0,13.0,69,0.00,,,0.00,VWS V14.01,2013-06-21 15:05:00,
2013-06-21 11:09:00,73.9,62.7,30.15,West,259,0.0,13.0,68,0.00,,,0.00,VWS V14.01,2013-06-21 15:09:00,
2013-06-21 11:10:00,74.2,62.5,30.15,West,274,0.0,13.0,67,0.00,,,0.00,VWS V14.01,2013-06-21 15:10:00,
2013-06-21 11:14:00,74.0,62.4,30.15,West,273,0.0,13.0,67,0.00,,,0.00,VWS V14.01,2013-06-21 15:14:00,
2013-06-21 11:15:00,74.4,61.9,30.15,West,274,0.0,13.0,65,0.00,,,0.00,VWS V14.01,2013-06-21 15:15:00,
2013-06-21 11:19:00,74.2,62.5,30.15,West,274,2.0,13.0,67,0.00,,,0.00,VWS V14.01,2013-06-21 15:19:00,
2013-06-21 11:20:00,74.6,62.9,30.15,WNW,283,0.0,13.0,67,0.00,,,0.00,VWS V14.01,2013-06-21 15:20:00,
2013-06-21 11:24:00,74.4,62.3,30.15,West,265,2.0,13.0,66,0.00,,,0.00,VWS V14.01,2013-06-21 15:24:00,
2013-06-21 11:25:00,75.1,62.5,30.15,WNW,291,4.0,13.0,65,0.00,,,0.00,VWS V14.01,2013-06-21 15:25:00,
2013-06-21 11:29:00,74.7,62.2,30.15,WNW,283,1.0,13.0,65,0.00,,,0.00,VWS V14.01,2013-06-21 15:29:00,
2013-06-21 11:30:00,75.3,62.7,30.15,West,276,1.0,13.0,65,0.00,,,0.00,VWS V14.01,2013-06-21 15:30:00,
2013-06-21 11:34:00,75.1,63.0,30.15,WNW,285,0.0,13.0,66,0.00,,,0.00,VWS V14.01,2013-06-21 15:34:00,
2013-06-21 11:35:00,75.6,62.1,30.15,West,273,0.0,13.0,63,0.00,,,0.00,VWS V14.01,2013-06-21 15:35:00,
2013-06-21 11:40:00,75.4,61.9,30.15,West,273,1.0,13.0,63,0.00,,,0.00,VWS V14.01,2013-06-21 15:40:00,
2013-06-21 11:45:00,76.7,63.6,30.15,West,273,0.0,13.0,64,0.00,,,0.00,VWS V14.01,2013-06-21 15:45:00,
2013-06-21 11:46:00,75.8,63.2,30.15,West,273,0.0,13.0,65,0.00,,,0.00,VWS V14.01,2013-06-21 15:46:00,
2013-06-21 11:50:00,77.2,63.2,30.15,West,277,0.0,13.0,62,0.00,,,0.00,VWS V14.01,2013-06-21 15:50:00,
2013-06-21 11:51:00,76.5,63.0,30.15,West,273,0.0,13.0,63,0.00,,,0.00,VWS V14.01,2013-06-21 15:51:00,
2013-06-21 11:55:00,77.6,63.1,30.15,West,277,0.0,13.0,61,0.00,,,0.00,VWS V14.01,2013-06-21 15:55:00,
2013-06-21 11:56:00,77.0,62.5,30.15,West,277,0.0,13.0,61,0.00,,,0.00,VWS V14.01,2013-06-21 15:56:00,
2013-06-21 12:00:00,78.1,64.0,30.15,West,281,1.0,13.0,62,0.00,,,0.00,VWS V14.01,2013-06-21 16:00:00,
2013-06-21 12:01:00,77.4,62.9,30.15,West,277,1.0,13.0,61,0.00,,,0.00,VWS V14.01,2013-06-21 16:01:00,
2013-06-21 12:05:00,78.8,63.3,30.15,West,281,3.0,13.0,59,0.00,,,0.00,VWS V14.01,2013-06-21 16:05:00,
2013-06-21 12:06:00,77.9,62.4,30.15,West,281,0.0,13.0,59,0.00,,,0.00,VWS V14.01,2013-06-21 16:06:00,
2013-06-21 12:10:00,79.2,61.7,30.15,WSW,257,1.0,13.0,55,0.00,,,0.00,VWS V14.01,2013-06-21 16:10:00,
2013-06-21 12:11:00,78.6,63.1,30.15,West,281,0.0,13.0,59,0.00,,,0.00,VWS V14.01,2013-06-21 16:11:00,
2013-06-21 12:15:00,79.6,63.0,30.15,ENE,75,0.0,13.0,57,0.00,,,0.00,VWS V14.01,2013-06-21 16:15:00,
2013-06-21 12:16:00,79.2,62.2,30.15,WSW,257,0.0,13.0,56,0.00,,,0.00,VWS V14.01,2013-06-21 16:16:00,
2013-06-21 12:20:00,80.3,63.2,30.15,ENE,75,0.0,13.0,56,0.00,,,0.00,VWS V14.01,2013-06-21 16:20:00,
2013-06-21 12:21:00,79.6,62.5,30.15,ENE,75,1.0,13.0,56,0.00,,,0.00,VWS V14.01,2013-06-21 16:21:00,
2013-06-21 12:25:00,81.2,63.0,30.15,ENE,74,0.0,13.0,54,0.00,,,0.00,VWS V14.01,2013-06-21 16:25:00,
2013-06-21 12:26:00,80.1,62.5,30.15,ENE,75,1.0,13.0,55,0.00,,,0.00,VWS V14.01,2013-06-21 16:26:00,
2013-06-21 12:30:00,81.6,62.8,30.14,ENE,71,0.0,13.0,53,0.00,,,0.00,VWS V14.01,2013-06-21 16:30:00,
2013-06-21 12:32:00,81.1,62.9,30.15,ENE,74,0.0,13.0,54,0.00,,,0.00,VWS V14.01,2013-06-21 16:32:00,
2013-06-21 12:35:00,82.0,63.2,30.14,ENE,69,0.0,13.0,53,0.00,,,0.00,VWS V14.01,2013-06-21 16:35:00,
2013-06-21 12:38:00,81.6,62.8,30.14,ENE,71,1.0,13.0,53,0.00,,,0.00,VWS V14.01,2013-06-21 16:38:00,
2013-06-21 12:40:00,82.4,63.6,30.14,ENE,67,0.0,13.0,53,0.00,,,0.00,VWS V14.01,2013-06-21 16:40:00,
2013-06-21 12:43:00,82.2,63.4,30.14,ENE,69,0.0,13.0,53,0.00,,,0.00,VWS V14.01,2013-06-21 16:43:00,
2013-06-21 12:45:00,82.2,62.8,30.14,ENE,67,0.0,13.0,52,0.00,,,0.00,VWS V14.01,2013-06-21 16:45:00,
2013-06-21 12:48:00,82.4,64.1,30.14,ENE,67,0.0,13.0,54,0.00,,,0.00,VWS V14.01,2013-06-21 16:48:00,
2013-06-21 12:50:00,82.2,63.9,30.14,ENE,67,0.0,13.0,54,0.00,,,0.00,VWS V14.01,2013-06-21 16:50:00,
2013-06-21 12:53:00,82.2,63.4,30.14,ENE,67,0.0,13.0,53,0.00,,,0.00,VWS V14.01,2013-06-21 16:53:00,
2013-06-21 12:55:00,81.8,63.5,30.14,NNE,17,0.0,13.0,54,0.00,,,0.00,VWS V14.01,2013-06-21 16:55:00,
2013-06-21 12:59:00,82.0,62.7,30.14,NNE,17,0.0,13.0,52,0.00,,,0.00,VWS V14.01,2013-06-21 16:59:00,
2013-06-21 13:00:00,81.6,63.9,30.13,SW,232,1.0,13.0,55,0.00,,,0.00,VWS V14.01,2013-06-21 17:00:00,
2013-06-21 13:04:00,81.8,63.5,30.14,SW,233,3.0,13.0,54,0.00,,,0.00,VWS V14.01,2013-06-21 17:04:00,
2013-06-21 13:05:00,81.1,63.9,30.13,SW,232,0.0,13.0,56,0.00,,,0.00,VWS V14.01,2013-06-21 17:05:00,
2013-06-21 13:09:00,81.4,63.2,30.13,SW,233,0.0,13.0,54,0.00,,,0.00,VWS V14.01,2013-06-21 17:09:00,
2013-06-21 13:10:00,80.3,63.7,30.13,SW,232,0.0,13.0,57,0.00,,,0.00,VWS V14.01,2013-06-21 17:10:00,
2013-06-21 13:14:00,80.9,64.2,30.13,SW,233,0.0,13.0,57,0.00,,,0.00,VWS V14.01,2013-06-21 17:14:00,
2013-06-21 13:15:00,79.9,64.8,30.14,SW,233,0.0,13.0,60,0.00,,,0.00,VWS V14.01,2013-06-21 17:15:00,
2013-06-21 13:19:00,80.1,64.5,30.13,SW,233,0.0,13.0,59,0.00,,,0.00,VWS V14.01,2013-06-21 17:19:00,
2013-06-21 13:20:00,79.8,64.2,30.14,SW,233,0.0,13.0,59,0.00,,,0.00,VWS V14.01,2013-06-21 17:20:00,
2013-06-21 13:24:00,79.6,65.4,30.14,SW,233,0.0,13.0,62,0.00,,,0.00,VWS V14.01,2013-06-21 17:24:00,
2013-06-21 13:25:00,80.9,64.2,30.14,SW,233,1.0,13.0,57,0.00,,,0.00,VWS V14.01,2013-06-21 17:25:00,
2013-06-21 13:29:00,80.1,64.0,30.14,SW,233,0.0,13.0,58,0.00,,,0.00,VWS V14.01,2013-06-21 17:29:00,
2013-06-21 13:30:00,82.0,63.2,30.13,SW,233,0.0,13.0,53,0.00,,,0.00,VWS V14.01,2013-06-21 17:30:00,
2013-06-21 13:35:00,81.6,62.8,30.14,SW,233,0.0,13.0,53,0.00,,,0.00,VWS V14.01,2013-06-21 17:35:00,
2013-06-21 13:40:00,84.5,63.8,30.13,SW,233,0.0,13.0,50,0.00,,,0.00,VWS V14.01,2013-06-21 17:40:00,
2013-06-21 13:41:00,82.8,63.9,30.13,SW,232,0.0,13.0,53,0.00,,,0.00,VWS V14.01,2013-06-21 17:41:00,
2013-06-21 13:45:00,86.1,62.9,30.12,WSW,244,3.0,13.0,46,0.00,,,0.00,VWS V14.01,2013-06-21 17:45:00,
2013-06-21 13:46:00,84.3,64.8,30.13,SW,233,0.0,13.0,52,0.00,,,0.00,VWS V14.01,2013-06-21 17:46:00,
2013-06-21 13:47:00,84.3,64.8,30.13,SW,233,0.0,13.0,52,0.00,,,0.00,VWS V14.01,2013-06-21 17:47:00,
2013-06-21 13:48:00,84.9,64.8,30.13,SW,233,1.0,13.0,51,0.00,,,0.00,VWS V14.01,2013-06-21 17:48:00,
2013-06-21 13:50:00,85.7,65.5,30.13,SW,233,1.0,13.0,51,0.00,,,0.00,VWS V14.01,2013-06-21 17:50:00,
2013-06-21 13:55:00,85.9,63.3,30.12,WSW,244,0.0,13.0,47,0.00,,,0.00,VWS V14.01,2013-06-21 17:55:00,
2013-06-21 14:00:00,85.3,64.6,30.12,WSW,244,0.0,13.0,50,0.00,,,0.00,VWS V14.01,2013-06-21 18:00:00,
2013-06-21 14:05:00,83.6,65.2,30.12,WSW,244,0.0,13.0,54,0.00,,,0.00,VWS V14.01,2013-06-21 18:05:00,
2013-06-21 14:10:00,81.8,63.5,30.12,West,266,1.0,13.0,54,0.00,,,0.00,VWS V14.01,2013-06-21 18:10:00,
2013-06-21 14:11:00,81.8,63.5,30.12,WSW,244,0.0,13.0,54,0.00,,,0.00,VWS V14.01,2013-06-21 18:11:00,
2013-06-21 14:15:00,83.0,63.6,30.11,West,268,2.0,13.0,52,0.00,,,0.00,VWS V14.01,2013-06-21 18:15:00,
2013-06-21 14:17:00,81.8,63.5,30.12,West,266,1.0,13.0,54,0.00,,,0.00,VWS V14.01,2013-06-21 18:17:00,
2013-06-21 14:20:00,83.4,63.4,30.11,West,268,0.0,13.0,51,0.00,,,0.00,VWS V14.01,2013-06-21 18:20:00,
2013-06-21 14:22:00,83.0,63.6,30.11,West,268,3.0,13.0,52,0.00,,,0.00,VWS V14.01,2013-06-21 18:22:00,
2013-06-21 14:23:00,83.2,63.8,30.11,West,268,2.0,13.0,52,0.00,,,0.00,VWS V14.01,2013-06-21 18:23:00,
2013-06-21 14:24:00,83.4,63.4,30.11,West,268,2.0,13.0,51,0.00,,,0.00,VWS V14.01,2013-06-21 18:24:00,
2013-06-21 14:25:00,83.4,63.4,30.11,West,268,1.0,13.0,51,0.00,,,0.00,VWS V14.01,2013-06-21 18:25:00,
2013-06-21 14:28:00,83.4,63.4,30.11,West,268,0.0,13.0,51,0.00,,,0.00,VWS V14.01,2013-06-21 18:28:00,
2013-06-21 14:30:00,83.8,64.3,30.11,West,268,0.0,13.0,52,0.00,,,0.00,VWS V14.01,2013-06-21 18:30:00,
2013-06-21 14:35:00,84.1,62.9,30.11,West,268,0.0,13.0,49,0.00,,,0.00,VWS V14.01,2013-06-21 18:35:00,
2013-06-21 14:40:00,83.8,64.3,30.11,West,268,0.0,13.0,52,0.00,,,0.00,VWS V14.01,2013-06-21 18:40:00,
2013-06-21 14:45:00,84.0,65.6,30.11,West,268,0.0,13.0,54,0.00,,,0.00,VWS V14.01,2013-06-21 18:45:00,
2013-06-21 14:46:00,84.0,65.6,30.11,West,268,0.0,13.0,54,0.00,,,0.00,VWS V14.01,2013-06-21 18:46:00,
2013-06-21 14:49:00,84.3,64.8,30.11,West,268,0.0,13.0,52,0.00,,,0.00,VWS V14.01,2013-06-21 18:49:00,
2013-06-21 14:50:00,84.5,65.0,30.10,West,276,0.0,13.0,52,0.00,,,0.00,VWS V14.01,2013-06-21 18:50:00,
2013-06-21 14:54:00,84.7,64.0,30.10,West,276,1.0,13.0,50,0.00,,,0.00,VWS V14.01,2013-06-21 18:54:00,
2013-06-21 14:55:00,84.0,65.6,30.10,West,276,0.0,13.0,54,0.00,,,0.00,VWS V14.01,2013-06-21 18:55:00,
2013-06-21 14:59:00,84.1,65.1,30.10,West,276,0.0,13.0,53,0.00,,,0.00,VWS V14.01,2013-06-21 18:59:00,
2013-06-21 15:00:00,83.8,64.3,30.11,WNW,302,0.0,13.0,52,0.00,,,0.00,VWS V14.01,2013-06-21 19:00:00,
2013-06-21 15:04:00,84.0,62.8,30.10,WNW,303,4.0,13.0,49,0.00,,,0.00,VWS V14.01,2013-06-21 19:04:00,
2013-06-21 15:05:00,83.4,62.3,30.11,WNW,302,0.0,13.0,49,0.00,,,0.00,VWS V14.01,2013-06-21 19:05:00,
2013-06-21 15:10:00,83.4,64.0,30.11,WNW,302,0.0,13.0,52,0.00,,,0.00,VWS V14.01,2013-06-21 19:10:00,
2013-06-21 15:15:00,83.4,62.8,30.11,WNW,302,0.0,13.0,50,0.00,,,0.00,VWS V14.01,2013-06-21 19:15:00,
2013-06-21 15:20:00,84.3,66.9,30.11,WNW,302,0.0,13.0,56,0.00,,,0.00,VWS V14.01,2013-06-21 19:20:00,
2013-06-21 15:25:00,85.3,62.2,30.10,West,261,0.0,13.0,46,0.00,,,0.00,VWS V14.01,2013-06-21 19:25:00,
2013-06-21 15:30:00,85.9,62.7,30.10,West,261,0.0,13.0,46,0.00,,,0.00,VWS V14.01,2013-06-21 19:30:00,
2013-06-21 15:35:00,86.1,62.3,30.10,WNW,285,0.0,13.0,45,0.00,,,0.00,VWS V14.01,2013-06-21 19:35:00,
2013-06-21 15:40:00,87.4,64.7,30.09,WNW,285,0.0,13.0,47,0.00,,,0.00,VWS V14.01,2013-06-21 19:40:00,
2013-06-21 15:41:00,86.1,64.1,30.09,WNW,285,0.0,13.0,48,0.00,,,0.00,VWS V14.01,2013-06-21 19:41:00,
2013-06-21 15:45:00,88.0,64.6,30.08,WNW,285,1.0,13.0,46,0.00,,,0.00,VWS V14.01,2013-06-21 19:45:00,
2013-06-21 15:46:00,87.2,63.9,30.09,WNW,285,0.0,13.0,46,0.00,,,0.00,VWS V14.01,2013-06-21 19:46:00,
2013-06-21 15:50:00,88.6,63.9,30.08,WNW,285,1.0,13.0,44,0.00,,,0.00,VWS V14.01,2013-06-21 19:50:00,
2013-06-21 15:51:00,88.0,64.7,30.08,WNW,285,1.0,13.0,46,0.00,,,0.00,VWS V14.01,2013-06-21 19:51:00,
2013-06-21 15:55:00,88.8,64.1,30.08,WNW,285,0.0,13.0,44,0.00,,,0.00,VWS V14.01,2013-06-21 19:55:00,
2013-06-21 15:57:00,88.6,63.9,30.08,WNW,285,0.0,13.0,44,0.00,,,0.00,VWS V14.01,2013-06-21 19:57:00,
2013-06-21 16:00:00,88.8,63.4,30.08,WNW,285,0.0,13.0,43,0.00,,,0.00,VWS V14.01,2013-06-21 20:00:00,
2013-06-21 16:02:00,88.8,64.7,30.08,WNW,285,0.0,13.0,45,0.00,,,0.00,VWS V14.01,2013-06-21 20:02:00,
2013-06-21 16:05:00,88.4,61.7,30.08,WNW,285,0.0,13.0,41,0.00,,,0.00,VWS V14.01,2013-06-21 20:05:00,
2013-06-21 16:07:00,88.8,63.4,30.08,WNW,285,0.0,13.0,43,0.00,,,0.00,VWS V14.01,2013-06-21 20:07:00,
2013-06-21 16:10:00,86.5,62.7,30.08,WNW,286,1.0,13.0,45,0.00,,,0.00,VWS V14.01,2013-06-21 20:10:00,
2013-06-21 16:12:00,88.6,61.9,30.08,WNW,285,0.0,13.0,41,0.00,,,0.00,VWS V14.01,2013-06-21 20:12:00,
2013-06-21 16:13:00,88.4,63.1,30.08,WNW,285,0.0,13.0,43,0.00,,,0.00,VWS V14.01,2013-06-21 20:13:00,
2013-06-21 16:15:00,84.5,65.5,30.08,WNW,286,0.0,13.0,53,0.00,,,0.00,VWS V14.01,2013-06-21 20:15:00,
2013-06-21 16:17:00,86.5,62.7,30.08,WNW,286,0.0,13.0,45,0.00,,,0.00,VWS V14.01,2013-06-21 20:17:00,
2013-06-21 16:20:00,84.7,64.6,30.08,WNW,286,0.0,13.0,51,0.00,,,0.00,VWS V14.01,2013-06-21 20:20:00,
2013-06-21 16:22:00,84.5,65.5,30.08,WNW,286,0.0,13.0,53,0.00,,,0.00,VWS V14.01,2013-06-21 20:22:00,
2013-06-21 16:25:00,85.3,64.0,30.08,WNW,286,0.0,13.0,49,0.00,,,0.00,VWS V14.01,2013-06-21 20:25:00,
2013-06-21 16:28:00,84.7,64.6,30.08,WNW,286,0.0,13.0,51,0.00,,,0.00,VWS V14.01,2013-06-21 20:28:00,
2013-06-21 16:30:00,86.3,64.9,30.07,WNW,286,0.0,13.0,49,0.00,,,0.00,VWS V14.01,2013-06-21 20:30:00,
2013-06-21 16:33:00,85.5,64.2,30.08,WNW,286,0.0,13.0,49,0.00,,,0.00,VWS V14.01,2013-06-21 20:33:00,
2013-06-21 16:35:00,87.2,63.3,30.07,WNW,286,0.0,13.0,45,0.00,,,0.00,VWS V14.01,2013-06-21 20:35:00,
2013-06-21 16:38:00,86.3,64.9,30.07,WNW,286,0.0,13.0,49,0.00,,,0.00,VWS V14.01,2013-06-21 20:38:00,
2013-06-21 16:40:00,87.8,64.5,30.07,WNW,286,0.0,13.0,46,0.00,,,0.00,VWS V14.01,2013-06-21 20:40:00,
2013-06-21 16:43:00,87.4,63.5,30.07,WNW,286,0.0,13.0,45,0.00,,,0.00,VWS V14.01,2013-06-21 20:43:00,
2013-06-21 16:45:00,86.7,62.2,30.07,ENE,61,0.0,13.0,44,0.00,,,0.00,VWS V14.01,2013-06-21 20:45:00,
2013-06-21 16:49:00,87.6,61.0,30.07,ENE,61,2.0,13.0,41,0.00,,,0.00,VWS V14.01,2013-06-21 20:49:00,
2013-06-21 16:50:00,86.7,61.5,30.07,ENE,61,0.0,13.0,43,0.00,,,0.00,VWS V14.01,2013-06-21 20:50:00,
2013-06-21 16:54:00,86.5,63.3,30.07,ENE,61,0.0,13.0,46,0.00,,,0.00,VWS V14.01,2013-06-21 20:54:00,
2013-06-21 16:55:00,87.4,63.5,30.07,ENE,61,0.0,13.0,45,0.00,,,0.00,VWS V14.01,2013-06-21 20:55:00,
2013-06-21 16:59:00,87.0,62.5,30.07,ENE,61,0.0,13.0,44,0.00,,,0.00,VWS V14.01,2013-06-21 20:59:00,
2013-06-21 17:00:00,87.6,62.4,30.07,ENE,61,0.0,13.0,43,0.00,,,0.00,VWS V14.01,2013-06-21 21:00:00,
2013-06-21 17:04:00,87.6,62.4,30.07,ENE,61,0.0,13.0,43,0.00,,,0.00,VWS V14.01,2013-06-21 21:04:00,
2013-06-21 17:05:00,87.6,63.7,30.07,North,350,0.0,13.0,45,0.00,,,0.00,VWS V14.01,2013-06-21 21:05:00,
2013-06-21 17:09:00,87.6,64.3,30.07,ENE,61,0.0,13.0,46,0.00,,,0.00,VWS V14.01,2013-06-21 21:09:00,
2013-06-21 17:10:00,87.4,64.1,30.07,North,350,0.0,13.0,46,0.00,,,0.00,VWS V14.01,2013-06-21 21:10:00,
2013-06-21 17:15:00,87.6,64.3,30.07,North,350,0.0,13.0,46,0.00,,,0.00,VWS V14.01,2013-06-21 21:15:00,
2013-06-21 17:20:00,87.4,63.5,30.07,North,350,0.0,13.0,45,0.00,,,0.00,VWS V14.01,2013-06-21 21:20:00,
2013-06-21 17:25:00,87.0,62.5,30.06,North,350,0.0,13.0,44,0.00,,,0.00,VWS V14.01,2013-06-21 21:25:00,
2013-06-21 17:30:00,86.3,61.2,30.06,North,355,0.0,13.0,43,0.00,,,0.00,VWS V14.01,2013-06-21 21:30:00,
2013-06-21 17:35:00,85.9,62.7,30.06,NNW,340,0.0,13.0,46,0.00,,,0.00,VWS V14.01,2013-06-21 21:35:00,
2013-06-21 17:40:00,85.3,62.2,30.06,WNW,291,1.0,13.0,46,0.00,,,0.00,VWS V14.01,2013-06-21 21:40:00,
2013-06-21 17:41:00,85.5,62.4,30.06,WNW,292,0.0,13.0,46,0.00,,,0.00,VWS V14.01,2013-06-21 21:41:00,
2013-06-21 17:45:00,85.1,62.6,30.06,WSW,246,1.0,13.0,47,0.00,,,0.00,VWS V14.01,2013-06-21 21:45:00,
2013-06-21 17:46:00,85.5,61.8,30.06,WNW,292,0.0,13.0,45,0.00,,,0.00,VWS V14.01,2013-06-21 21:46:00,
2013-06-21 17:50:00,84.7,62.3,30.06,West,267,2.0,13.0,47,0.00,,,0.00,VWS V14.01,2013-06-21 21:50:00,
2013-06-21 17:52:00,85.1,62.6,30.06,WSW,246,0.0,13.0,47,0.00,,,0.00,VWS V14.01,2013-06-21 21:52:00,
2013-06-21 17:55:00,84.5,63.3,30.06,WSW,257,1.0,13.0,49,0.00,,,0.00,VWS V14.01,2013-06-21 21:55:00,
2013-06-21 17:57:00,84.9,62.4,30.06,WSW,257,2.0,13.0,47,0.00,,,0.00,VWS V14.01,2013-06-21 21:57:00,
2013-06-21 18:00:00,84.3,63.7,30.05,WNW,302,0.0,13.0,50,0.00,,,0.00,VWS V14.01,2013-06-21 22:00:00,
2013-06-21 18:02:00,84.5,63.3,30.06,WSW,257,2.0,13.0,49,0.00,,,0.00,VWS V14.01,2013-06-21 22:02:00,
2013-06-21 18:05:00,84.0,65.1,30.05,WSW,257,0.0,13.0,53,0.00,,,0.00,VWS V14.01,2013-06-21 22:05:00,
2013-06-21 18:07:00,84.3,63.7,30.05,WNW,302,1.0,13.0,50,0.00,,,0.00,VWS V14.01,2013-06-21 22:07:00,
2013-06-21 18:10:00,83.6,64.7,30.05,WSW,257,0.0,13.0,53,0.00,,,0.00,VWS V14.01,2013-06-21 22:10:00,
2013-06-21 18:12:00,84.0,65.1,30.05,WSW,257,1.0,13.0,53,0.00,,,0.00,VWS V14.01,2013-06-21 22:12:00,
2013-06-21 18:15:00,83.2,64.3,30.05,WSW,256,0.0,13.0,53,0.00,,,0.00,VWS V14.01,2013-06-21 22:15:00,
2013-06-21 18:17:00,83.6,64.7,30.05,WSW,257,0.0,13.0,53,0.00,,,0.00,VWS V14.01,2013-06-21 22:17:00,
2013-06-21 18:20:00,82.8,63.4,30.05,WSW,257,0.0,13.0,52,0.00,,,0.00,VWS V14.01,2013-06-21 22:20:00,
2013-06-21 18:22:00,83.2,64.3,30.05,WSW,256,0.0,13.0,53,0.00,,,0.00,VWS V14.01,2013-06-21 22:22:00,
2013-06-21 18:25:00,82.6,63.8,30.05,WSW,257,2.0,13.0,53,0.00,,,0.00,VWS V14.01,2013-06-21 22:25:00,
2013-06-21 18:27:00,82.8,63.4,30.05,WSW,257,0.0,13.0,52,0.00,,,0.00,VWS V14.01,2013-06-21 22:27:00,
2013-06-21 18:30:00,82.2,63.9,30.05,WSW,251,2.0,13.0,54,0.00,,,0.00,VWS V14.01,2013-06-21 22:30:00,
2013-06-21 18:32:00,82.6,63.2,30.05,WSW,257,1.0,13.0,52,0.00,,,0.00,VWS V14.01,2013-06-21 22:32:00,
2013-06-21 18:35:00,82.0,63.7,30.05,WSW,251,0.0,13.0,54,0.00,,,0.00,VWS V14.01,2013-06-21 22:35:00,
2013-06-21 18:37:00,82.2,63.9,30.05,WSW,251,1.0,13.0,54,0.00,,,0.00,VWS V14.01,2013-06-21 22:37:00,
2013-06-21 18:40:00,81.8,64.6,30.05,WSW,251,0.0,13.0,56,0.00,,,0.00,VWS V14.01,2013-06-21 22:40:00,
2013-06-21 18:43:00,82.0,64.3,30.05,WSW,251,0.0,13.0,55,0.00,,,0.00,VWS V14.01,2013-06-21 22:43:00,
2013-06-21 18:45:00,81.8,65.6,30.05,WSW,251,0.0,13.0,58,0.00,,,0.00,VWS V14.01,2013-06-21 22:45:00,
2013-06-21 18:48:00,81.8,65.1,30.05,WSW,251,0.0,13.0,57,0.00,,,0.00,VWS V14.01,2013-06-21 22:48:00,
2013-06-21 18:50:00,82.0,65.8,30.05,WSW,251,0.0,13.0,58,0.00,,,0.00,VWS V14.01,2013-06-21 22:50:00,
2013-06-21 18:53:00,81.8,64.6,30.05,WSW,251,0.0,13.0,56,0.00,,,0.00,VWS V14.01,2013-06-21 22:53:00,
2013-06-21 18:55:00,82.0,67.7,30.05,WSW,251,0.0,13.0,62,0.00,,,0.00,VWS V14.01,2013-06-21 22:55:00,
2013-06-21 18:58:00,82.0,65.8,30.05,WSW,251,0.0,13.0,58,0.00,,,0.00,VWS V14.01,2013-06-21 22:58:00,
2013-06-21 19:00:00,81.6,67.3,30.05,WSW,251,0.0,13.0,62,0.00,,,0.00,VWS V14.01,2013-06-21 23:00:00,
2013-06-21 19:03:00,81.8,67.5,30.05,WSW,251,0.0,13.0,62,0.00,,,0.00,VWS V14.01,2013-06-21 23:03:00,
2013-06-21 19:05:00,81.1,68.2,30.05,WSW,251,0.0,13.0,65,0.00,,,0.00,VWS V14.01,2013-06-21 23:05:00,
2013-06-21 19:08:00,81.4,68.1,30.05,WSW,251,0.0,13.0,64,0.00,,,0.00,VWS V14.01,2013-06-21 23:08:00,
2013-06-21 19:10:00,80.5,67.7,30.05,WSW,251,0.0,13.0,65,0.00,,,0.00,VWS V14.01,2013-06-21 23:10:00,
2013-06-21 19:13:00,80.9,68.0,30.05,WSW,251,0.0,13.0,65,0.00,,,0.00,VWS V14.01,2013-06-21 23:13:00,
2013-06-21 19:15:00,80.3,67.9,30.05,WSW,251,0.0,13.0,66,0.00,,,0.00,VWS V14.01,2013-06-21 23:15:00,
2013-06-21 19:18:00,80.5,67.7,30.05,WSW,251,0.0,13.0,65,0.00,,,0.00,VWS V14.01,2013-06-21 23:18:00,
2013-06-21 19:20:00,79.9,68.0,30.05,WSW,251,0.0,13.0,67,0.00,,,0.00,VWS V14.01,2013-06-21 23:20:00,
2013-06-21 19:23:00,80.3,67.9,30.05,WSW,251,0.0,13.0,66,0.00,,,0.00,VWS V14.01,2013-06-21 23:23:00,
2013-06-21 19:25:00,79.6,67.2,30.05,WSW,251,0.0,13.0,66,0.00,,,0.00,VWS V14.01,2013-06-21 23:25:00,
2013-06-21 19:28:00,79.9,68.0,30.05,WSW,251,0.0,13.0,67,0.00,,,0.00,VWS V14.01,2013-06-21 23:28:00,
2013-06-21 19:30:00,79.0,67.1,30.04,WSW,251,0.0,13.0,67,0.00,,,0.00,VWS V14.01,2013-06-21 23:30:00,
2013-06-21 19:33:00,79.6,67.2,30.05,WSW,251,0.0,13.0,66,0.00,,,0.00,VWS V14.01,2013-06-21 23:33:00,
2013-06-21 19:35:00,78.5,67.5,30.04,WSW,251,0.0,13.0,69,0.00,,,0.00,VWS V14.01,2013-06-21 23:35:00,
2013-06-21 19:39:00,78.8,66.9,30.04,WSW,251,0.0,13.0,67,0.00,,,0.00,VWS V14.01,2013-06-21 23:39:00,
2013-06-21 19:40:00,77.9,67.3,30.04,WSW,251,0.0,13.0,70,0.00,,,0.00,VWS V14.01,2013-06-21 23:40:00,
2013-06-21 19:44:00,78.3,67.3,30.04,WSW,251,0.0,13.0,69,0.00,,,0.00,VWS V14.01,2013-06-21 23:44:00,
2013-06-21 19:45:00,77.6,67.1,30.05,WSW,251,0.0,13.0,70,0.00,,,0.00,VWS V14.01,2013-06-21 23:45:00,
2013-06-21 19:49:00,77.7,67.1,30.04,WSW,251,0.0,13.0,70,0.00,,,0.00,VWS V14.01,2013-06-21 23:49:00,
2013-06-21 19:50:00,77.2,67.1,30.05,WSW,251,0.0,13.0,71,0.00,,,0.00,VWS V14.01,2013-06-21 23:50:00,
2013-06-21 19:54:00,77.4,67.3,30.05,WSW,251,0.0,13.0,71,0.00,,,0.00,VWS V14.01,2013-06-21 23:54:00,
2013-06-21 19:55:00,76.8,66.7,30.05,WSW,251,0.0,13.0,71,0.00,,,0.00,VWS V14.01,2013-06-21 23:55:00,
2013-06-21 19:59:00,77.2,67.1,30.05,WSW,251,0.0,13.0,71,0.00,,,0.00,VWS V14.01,2013-06-21 23:59:00,
2013-06-21 20:00:00,76.5,66.8,30.06,WSW,251,0.0,13.0,72,0.00,,,0.00,VWS V14.01,2013-06-22 00:00:00,
2013-06-21 20:04:00,76.7,66.6,30.05,WSW,251,0.0,13.0,71,0.00,,,0.00,VWS V14.01,2013-06-22 00:04:00,
2013-06-21 20:05:00,76.3,66.6,30.06,WSW,251,0.0,13.0,72,0.00,,,0.00,VWS V14.01,2013-06-22 00:05:00,
2013-06-21 20:09:00,76.5,66.8,30.06,WSW,251,0.0,13.0,72,0.00,,,0.00,VWS V14.01,2013-06-22 00:09:00,
2013-06-21 20:10:00,76.1,66.8,30.06,WSW,251,0.0,13.0,73,0.00,,,0.00,VWS V14.01,2013-06-22 00:10:00,
2013-06-21 20:14:00,76.3,66.6,30.06,WSW,251,0.0,13.0,72,0.00,,,0.00,VWS V14.01,2013-06-22 00:14:00,
2013-06-21 20:15:00,76.0,66.7,30.06,WSW,251,0.0,13.0,73,0.00,,,0.00,VWS V14.01,2013-06-22 00:15:00,
2013-06-21 20:19:00,76.1,66.8,30.06,WSW,251,0.0,13.0,73,0.00,,,0.00,VWS V14.01,2013-06-22 00:19:00,
2013-06-21 20:20:00,75.6,66.3,30.06,WSW,251,0.0,13.0,73,0.00,,,0.00,VWS V14.01,2013-06-22 00:20:00,
2013-06-21 20:25:00,75.8,66.1,30.06,WSW,251,0.0,13.0,72,0.00,,,0.00,VWS V14.01,2013-06-22 00:25:00,
2013-06-21 20:30:00,75.4,66.2,30.06,WSW,251,0.0,13.0,73,0.00,,,0.00,VWS V14.01,2013-06-22 00:30:00,
2013-06-21 20:35:00,75.3,66.4,30.06,WSW,251,0.0,13.0,74,0.00,,,0.00,VWS V14.01,2013-06-22 00:35:00,
2013-06-21 20:40:00,75.1,66.2,30.06,WSW,251,0.0,13.0,74,0.00,,,0.00,VWS V14.01,2013-06-22 00:40:00,
2013-06-21 20:45:00,74.9,66.1,30.06,WSW,251,0.0,13.0,74,0.00,,,0.00,VWS V14.01,2013-06-22 00:45:00,
2013-06-21 20:50:00,74.6,66.2,30.06,WSW,251,0.0,13.0,75,0.00,,,0.00,VWS V14.01,2013-06-22 00:50:00,
2013-06-21 20:55:00,73.9,67.0,30.06,WSW,251,0.0,13.0,79,0.00,,,0.00,VWS V14.01,2013-06-22 00:55:00,
2013-06-21 21:00:00,73.5,66.6,30.06,WSW,251,0.0,13.0,79,0.00,,,0.00,VWS V14.01,2013-06-22 01:00:00,
2013-06-21 21:05:00,73.3,66.4,30.06,WSW,251,0.0,13.0,79,0.00,,,0.00,VWS V14.01,2013-06-22 01:05:00,
2013-06-21 21:10:00,73.0,66.5,30.07,WSW,251,0.0,13.0,80,0.00,,,0.00,VWS V14.01,2013-06-22 01:10:00,
2013-06-21 21:15:00,72.7,63.5,30.07,NW,304,2.0,13.0,73,0.00,,,0.00,VWS V14.01,2013-06-22 01:15:00,
2013-06-21 21:20:00,72.7,62.8,30.07,WNW,285,1.0,13.0,71,0.00,,,0.00,VWS V14.01,2013-06-22 01:20:00,
2013-06-21 21:25:00,72.8,62.5,30.06,NE,35,2.0,13.0,70,0.00,,,0.00,VWS V14.01,2013-06-22 01:25:00,
2013-06-21 21:30:00,72.7,62.0,30.06,WNW,292,4.0,13.0,69,0.00,,,0.00,VWS V14.01,2013-06-22 01:30:00,
2013-06-21 21:35:00,72.0,62.1,30.07,NW,315,2.0,4.0,71,0.00,,,0.00,VWS V14.01,2013-06-22 01:35:00,
2013-06-21 21:40:00,71.8,63.5,30.07,West,270,1.0,3.0,75,0.00,,,0.00,VWS V14.01,2013-06-22 01:40:00,
2013-06-21 21:45:00,70.9,62.6,30.09,West,270,1.0,4.0,75,0.00,,,0.00,VWS V14.01,2013-06-22 01:45:00,
2013-06-21 21:50:00,70.1,62.2,30.09,West,270,0.0,1.0,76,0.00,,,0.00,VWS V14.01,2013-06-22 01:50:00,
2013-06-21 21:55:00,69.4,63.0,30.09,West,270,0.0,1.0,80,0.00,,,0.00,VWS V14.01,2013-06-22 01:55:00,
2013-06-21 22:00:00,68.6,63.2,30.10,West,270,0.0,1.0,83,0.00,,,0.00,VWS V14.01,2013-06-22 02:00:00,
2013-06-21 22:05:00,68.1,63.8,30.10,WNW,292,1.0,3.0,86,0.00,,,0.00,VWS V14.01,2013-06-22 02:05:00,
2013-06-21 22:10:00,67.6,63.3,30.10,WNW,292,1.0,3.0,86,0.00,,,0.00,VWS V14.01,2013-06-22 02:10:00,
2013-06-21 22:15:00,67.3,63.6,30.10,WNW,292,0.0,0.0,88,0.00,,,0.00,VWS V14.01,2013-06-22 02:15:00,
2013-06-21 22:20:00,67.1,63.1,30.10,NNW,338,0.0,1.0,87,0.00,,,0.00,VWS V14.01,2013-06-22 02:20:00,
2013-06-21 22:25:00,66.9,62.9,30.10,NNW,338,0.0,0.0,87,0.00,,,0.00,VWS V14.01,2013-06-22 02:25:00,
2013-06-21 22:30:00,66.8,63.1,30.12,NNW,338,0.0,1.0,88,0.00,,,0.00,VWS V14.01,2013-06-22 02:30:00,
2013-06-21 22:35:00,66.6,62.9,30.12,NNW,338,0.0,0.0,88,0.00,,,0.00,VWS V14.01,2013-06-22 02:35:00,
2013-06-21 22:40:00,66.6,62.9,30.12,NNW,338,0.0,0.0,88,0.00,,,0.00,VWS V14.01,2013-06-22 02:40:00,
2013-06-21 22:45:00,66.6,63.3,30.12,NNW,338,0.0,0.0,89,0.00,,,0.00,VWS V14.01,2013-06-22 02:45:00,
2013-06-21 22:50:00,66.4,63.1,30.12,NNW,338,0.0,0.0,89,0.00,,,0.00,VWS V14.01,2013-06-22 02:50:00,
2013-06-21 22:55:00,66.1,62.8,30.12,NNW,338,0.0,1.0,89,0.00,,,0.00,VWS V14.01,2013-06-22 02:55:00,
2013-06-21 23:00:00,65.8,62.8,30.12,NNW,338,0.0,2.0,90,0.00,,,0.00,VWS V14.01,2013-06-22 03:00:00,
2013-06-21 23:05:00,65.8,63.1,30.12,NNW,338,0.0,1.0,91,0.00,,,0.00,VWS V14.01,2013-06-22 03:05:00,
2013-06-21 23:10:00,65.6,62.9,30.12,NNW,338,0.0,0.0,91,0.00,,,0.00,VWS V14.01,2013-06-22 03:10:00,
2013-06-21 23:15:00,65.5,62.8,30.11,NNW,338,0.0,0.0,91,0.00,,,0.00,VWS V14.01,2013-06-22 03:15:00,
2013-06-21 23:20:00,65.3,62.9,30.11,NNW,338,0.0,0.0,92,0.00,,,0.00,VWS V14.01,2013-06-22 03:20:00,
2013-06-21 23:25:00,65.2,62.8,30.11,NNW,338,0.0,0.0,92,0.00,,,0.00,VWS V14.01,2013-06-22 03:25:00,
2013-06-21 23:30:00,65.2,62.8,30.12,NNW,338,0.0,0.0,92,0.00,,,0.00,VWS V14.01,2013-06-22 03:30:00,
2013-06-21 23:35:00,65.0,62.6,30.12,NNW,338,0.0,0.0,92,0.00,,,0.00,VWS V14.01,2013-06-22 03:35:00,
2013-06-21 23:40:00,64.8,62.4,30.12,NNW,338,0.0,0.0,92,0.00,,,0.00,VWS V14.01,2013-06-22 03:40:00,
2013-06-21 23:45:00,64.7,62.3,30.12,NNW,338,0.0,0.0,92,0.00,,,0.00,VWS V14.01,2013-06-22 03:45:00,
2013-06-21 23:50:00,64.7,62.3,30.12,NNW,338,0.0,1.0,92,0.00,,,0.00,VWS V14.01,2013-06-22 03:50:00,
2013-06-21 23:55:00,64.7,62.6,30.12,NNW,338,0.0,1.0,93,0.00,,,0.00,VWS V14.01,2013-06-22 03:55:00,